Time;durP1;ratioP1;P1;durP2;ratioP2;P2;SDS_P1;SDS_P2;PMS_P1;PMS_P2;Temp;Humidity;BMP_temperature;BMP_pressure;BME280_temperature;BME280_humidity;BME280_pressure;Samples;Min_cycle;Max_cycle;Signal;HPM_P1;HPM_P2
2023/12/07 00:09:13;;;;;;;38.80;26.00;;;;;;;-3.38;100.00;99637.75;432697;1259;140755;-65
2023/12/07 00:19:19;;;;;;;44.00;27.00;;;;;;;-3.39;100.00;99639.13;432325;1258;141340;-63
2023/12/07 00:29:26;;;;;;;43.10;29.70;;;;;;;-3.39;100.00;99632.79;450274;1255;142317;-65
2023/12/07 00:39:32;;;;;;;44.10;28.30;;;;;;;-3.37;100.00;99630.73;450318;1254;139808;-65
2023/12/07 00:49:40;;;;;;;47.80;30.30;;;;;;;-3.36;100.00;99633.13;433847;1257;141000;-65
2023/12/07 00:59:47;;;;;;;50.60;32.10;;;;;;;-3.37;100.00;99637.41;434313;1259;141439;-65
2023/12/07 01:09:53;;;;;;;45.90;32.80;;;;;;;-3.38;100.00;99644.42;434569;1257;178855;-64
2023/12/07 01:20:00;;;;;;;48.90;31.40;;;;;;;-3.36;100.00;99650.74;432364;1255;140159;-64
2023/12/07 01:30:08;;;;;;;46.80;30.30;;;;;;;-3.38;100.00;99650.23;443756;1255;140610;-64
2023/12/07 01:40:15;;;;;;;49.00;30.60;;;;;;;-3.36;100.00;99655.54;435418;1255;140769;-64
2023/12/07 01:50:23;;;;;;;50.10;31.40;;;;;;;-3.31;100.00;99659.11;436751;1255;140173;-64
2023/12/07 02:00:30;;;;;;;46.90;28.40;;;;;;;-3.28;100.00;99665.41;434306;1255;140224;-64
2023/12/07 02:10:36;;;;;;;49.10;30.70;;;;;;;-3.28;100.00;99672.27;432320;1258;140075;-65
2023/12/07 02:20:48;;;;;;;45.10;28.80;;;;;;;-3.30;100.00;99675.01;432451;1255;140270;-63
2023/12/07 02:30:54;;;;;;;46.90;29.60;;;;;;;-3.27;100.00;99673.12;433263;1257;140315;-64
2023/12/07 02:41:02;;;;;;;51.90;31.60;;;;;;;-3.22;100.00;99675.99;437911;1254;141165;-65
2023/12/07 02:51:08;;;;;;;49.90;30.20;;;;;;;-3.17;100.00;99680.25;432929;1259;141361;-64
2023/12/07 03:01:14;;;;;;;51.50;30.90;;;;;;;-3.17;100.00;99682.80;441813;1255;140714;-65
2023/12/07 03:11:21;;;;;;;47.70;30.00;;;;;;;-3.13;100.00;99691.52;432715;1255;140226;-63
2023/12/07 03:21:27;;;;;;;48.60;29.30;;;;;;;-3.09;100.00;99696.13;436759;1256;141033;-65
2023/12/07 03:31:33;;;;;;;44.00;29.00;;;;;;;-3.07;100.00;99693.02;433283;1255;139869;-64
2023/12/07 03:41:39;;;;;;;46.70;28.60;;;;;;;-3.04;100.00;99699.02;432695;1258;141083;-64
2023/12/07 03:51:45;;;;;;;45.30;27.20;;;;;;;-3.02;100.00;99695.73;437369;1257;140389;-65
2023/12/07 04:01:52;;;;;;;47.30;28.80;;;;;;;-3.00;100.00;99690.77;436379;1257;139766;-64
2023/12/07 04:11:58;;;;;;;43.20;28.10;;;;;;;-2.98;100.00;99694.34;433055;1259;140532;-64
2023/12/07 04:22:05;;;;;;;43.00;25.90;;;;;;;-2.97;100.00;99697.41;432244;1257;141075;-65
2023/12/07 04:32:11;;;;;;;39.70;24.40;;;;;;;-2.92;100.00;99697.90;433069;1260;142362;-64
2023/12/07 04:42:17;;;;;;;45.30;27.60;;;;;;;-2.89;100.00;99708.16;432843;1255;140304;-64
2023/12/07 04:52:21;;;;;;;;;;;;;;;-2.89;100.00;99709.02;432644;1260;142267;-64
2023/12/07 05:02:28;;;;;;;43.30;25.50;;;;;;;-2.84;100.00;99723.20;432525;1255;127031;-64
2023/12/07 05:12:35;;;;;;;38.50;24.80;;;;;;;-2.78;100.00;99724.37;432501;1257;141164;-64
2023/12/07 05:22:41;;;;;;;43.90;25.80;;;;;;;-2.75;100.00;99728.98;432650;1258;140090;-64
2023/12/07 05:32:47;;;;;;;38.90;25.40;;;;;;;-2.70;100.00;99741.10;432585;1255;140116;-64
2023/12/07 05:42:54;;;;;;;45.50;24.60;;;;;;;-2.68;100.00;99752.05;432630;1255;142460;-64
2023/12/07 05:53:01;;;;;;;40.20;23.40;;;;;;;-2.67;100.00;99754.95;434129;1255;139887;-64
2023/12/07 06:03:09;;;;;;;35.40;21.70;;;;;;;-2.62;100.00;99761.27;432689;1258;140802;-64
2023/12/07 06:13:15;;;;;;;42.00;24.30;;;;;;;-2.60;100.00;99762.61;432369;1258;140596;-65
2023/12/07 06:23:22;;;;;;;42.40;25.60;;;;;;;-2.57;100.00;99776.31;432846;1255;140907;-63
2023/12/07 06:33:28;;;;;;;41.90;24.20;;;;;;;-2.58;100.00;99783.53;431974;1255;140917;-65
2023/12/07 06:43:34;;;;;;;46.60;24.80;;;;;;;-2.56;100.00;99790.70;432350;1260;140808;-65
2023/12/07 06:53:41;;;;;;;41.20;24.00;;;;;;;-2.50;100.00;99795.46;432305;1260;140929;-64
2023/12/07 07:03:47;;;;;;;37.10;22.50;;;;;;;-2.44;100.00;99800.58;432015;1256;141642;-64
2023/12/07 07:13:54;;;;;;;43.10;25.70;;;;;;;-2.36;100.00;99799.83;432401;1260;139868;-64
2023/12/07 07:24:00;;;;;;;43.30;27.10;;;;;;;-2.27;100.00;99800.95;435141;1258;140299;-66
2023/12/07 07:34:07;;;;;;;44.90;26.00;;;;;;;-2.19;100.00;99801.57;432246;1259;141628;-65
2023/12/07 07:44:14;;;;;;;50.40;26.30;;;;;;;-2.07;100.00;99811.08;434884;1255;141254;-72
2023/12/07 07:54:20;;;;;;;49.40;29.10;;;;;;;-1.93;100.00;99806.84;439753;1255;141142;-73
2023/12/07 08:04:27;;;;;;;43.70;25.80;;;;;;;-1.82;100.00;99801.58;438211;1255;140804;-82
2023/12/07 08:14:31;;;;;;;;;;;;;;;-1.68;100.00;99809.69;437179;1259;141813;-71
2023/12/07 08:24:39;;;;;;;39.60;23.20;;;;;;;-1.53;100.00;99809.19;436322;1260;129353;-74
2023/12/07 08:34:45;;;;;;;46.10;23.90;;;;;;;-1.37;100.00;99819.31;438334;1255;139752;-70
2023/12/07 08:44:52;;;;;;;40.00;21.90;;;;;;;-1.24;100.00;99828.62;438436;1255;140076;-73
2023/12/07 08:54:58;;;;;;;48.10;24.00;;;;;;;-1.14;100.00;99837.26;440324;1255;141002;-76
2023/12/07 09:05:04;;;;;;;41.70;24.70;;;;;;;-0.96;100.00;99841.67;438501;1260;196876;-73
2023/12/07 09:15:10;;;;;;;;;;;;;;;-0.45;100.00;99844.95;438730;1258;140246;-71
2023/12/07 09:25:18;;;;;;;41.00;25.30;;;;;;;-0.08;100.00;99843.69;438933;1259;126147;-71
2023/12/07 09:35:24;;;;;;;39.90;25.00;;;;;;;0.01;100.00;99837.88;434856;1258;139950;-76
2023/12/07 09:45:30;;;;;;;36.50;23.80;;;;;;;0.16;100.00;99836.59;440273;1258;141561;-75
2023/12/07 09:55:40;;;;;;;31.00;19.30;;;;;;;0.29;100.00;99831.55;436765;1255;139995;-71
2023/12/07 10:06:01;;;;;;;35.50;20.90;;;;;;;0.54;100.00;99828.33;434936;1257;140007;-65
2023/12/07 10:16:14;;;;;;;36.10;21.90;;;;;;;0.87;100.00;99823.56;443692;1255;140010;-82
2023/12/07 10:26:23;;;;;;;35.90;22.00;;;;;;;1.13;100.00;99826.66;447432;1257;140953;-78
2023/12/07 10:36:29;;;;;;;35.30;22.40;;;;;;;1.10;100.00;99827.06;446320;1254;139489;-67
2023/12/07 10:46:38;;;;;;;31.90;19.40;;;;;;;1.02;100.00;99830.32;439156;1259;141273;-66
2023/12/07 10:56:47;;;;;;;32.50;21.80;;;;;;;0.82;100.00;99828.82;437602;1260;139691;-64
2023/12/07 11:06:57;;;;;;;37.10;21.50;;;;;;;0.69;100.00;99823.05;438646;1258;141000;-62
2023/12/07 11:17:04;;;;;;;33.80;21.50;;;;;;;0.73;100.00;99814.04;433643;1258;139649;-62
2023/12/07 11:27:10;;;;;;;33.60;22.80;;;;;;;0.71;100.00;99820.26;437651;1259;139880;-69
2023/12/07 11:37:19;;;;;;;41.50;25.50;;;;;;;0.75;100.00;99821.05;435434;1259;141398;-65
2023/12/07 11:47:25;;;;;;;40.10;24.50;;;;;;;0.59;100.00;99813.27;438352;1260;139739;-63
2023/12/07 11:57:33;;;;;;;47.40;26.10;;;;;;;0.65;100.00;99816.75;437256;1260;140227;-69
2023/12/07 12:07:40;;;;;;;40.30;24.40;;;;;;;0.65;100.00;99819.36;432630;1260;141111;-66
2023/12/07 12:17:47;;;;;;;42.60;24.40;;;;;;;0.73;100.00;99811.44;432607;1261;140303;-65
2023/12/07 12:27:54;;;;;;;39.00;22.50;;;;;;;0.77;100.00;99813.08;432778;1258;139781;-73
2023/12/07 12:38:00;;;;;;;39.10;23.60;;;;;;;0.72;100.00;99811.45;432482;1259;140292;-66
2023/12/07 12:48:08;;;;;;;35.70;22.60;;;;;;;0.60;100.00;99813.58;434376;1260;140655;-67
2023/12/07 12:58:16;;;;;;;37.00;24.30;;;;;;;0.59;100.00;99822.73;438420;1259;141482;-69
2023/12/07 13:08:23;;;;;;;39.50;24.60;;;;;;;0.49;100.00;99815.70;439085;1258;170939;-76
2023/12/07 13:18:29;;;;;;;36.90;24.30;;;;;;;0.33;100.00;99810.64;439015;1260;140014;-65
2023/12/07 13:28:36;;;;;;;35.50;23.80;;;;;;;0.18;100.00;99819.51;439846;1260;141286;-67
2023/12/07 13:38:43;;;;;;;38.30;25.30;;;;;;;0.03;100.00;99821.14;432713;1260;141616;-67
2023/12/07 13:48:51;;;;;;;35.20;25.00;;;;;;;-0.06;100.00;99823.02;432149;1260;141455;-72
2023/12/07 13:58:57;;;;;;;38.10;24.40;;;;;;;-0.20;100.00;99829.61;433360;1260;140759;-73
2023/12/07 14:09:04;;;;;;;41.10;24.90;;;;;;;-0.33;100.00;99833.61;433613;1257;141217;-74
2023/12/07 14:19:10;;;;;;;47.80;28.00;;;;;;;-0.47;100.00;99856.67;438610;1259;140133;-73
2023/12/07 14:29:20;;;;;;;44.40;28.50;;;;;;;-0.54;100.00;99865.03;438692;1260;141045;-75
2023/12/07 14:39:33;;;;;;;41.10;25.60;;;;;;;-0.62;100.00;99872.52;439099;1257;139928;-74
2023/12/07 14:49:40;;;;;;;48.80;29.90;;;;;;;-0.74;100.00;99881.80;436825;1260;141157;-69
2023/12/07 14:59:46;;;;;;;43.60;27.50;;;;;;;-0.86;100.00;99878.68;436768;1258;140161;-67
2023/12/07 15:09:52;;;;;;;41.30;27.00;;;;;;;-0.84;100.00;99881.23;438856;1257;141870;-70
2023/12/07 15:19:59;;;;;;;44.80;30.30;;;;;;;-0.84;100.00;99877.45;433322;1260;140752;-66
2023/12/07 15:30:07;;;;;;;41.10;27.40;;;;;;;-0.84;100.00;99879.17;433247;1257;140260;-60
2023/12/07 15:40:14;;;;;;;50.10;31.00;;;;;;;-0.85;100.00;99878.84;434475;1260;141366;-69
2023/12/07 15:50:20;;;;;;;48.30;32.20;;;;;;;-0.88;100.00;99885.08;434370;1254;140209;-67
2023/12/07 16:00:27;;;;;;;46.00;27.60;;;;;;;-0.87;100.00;99886.44;450367;1254;140543;-70
2023/12/07 16:10:34;;;;;;;44.50;26.80;;;;;;;-0.87;100.00;99890.38;450369;1254;140045;-72
2023/12/07 16:20:41;;;;;;;38.90;26.20;;;;;;;-0.88;100.00;99900.36;442542;1257;140996;-77
2023/12/07 16:30:47;;;;;;;33.40;22.10;;;;;;;-0.87;100.00;99901.56;435110;1258;140023;-66
2023/12/07 16:40:54;;;;;;;35.90;22.20;;;;;;;-0.88;100.00;99904.83;436824;1256;140452;-70
2023/12/07 16:51:02;;;;;;;35.10;20.40;;;;;;;-0.88;100.00;99911.18;438674;1254;141264;-77
2023/12/07 17:01:09;;;;;;;36.30;24.10;;;;;;;-0.92;100.00;99916.23;442397;1254;139864;-72
2023/12/07 17:11:13;;;;;;;;;;;;;;;-0.92;100.00;99911.93;437916;1257;140068;-74
2023/12/07 17:21:20;;;;;;;41.60;29.10;;;;;;;-0.93;100.00;99912.27;438920;1255;126211;-69
2023/12/07 17:31:24;;;;;;;;;;;;;;;-0.97;100.00;99909.75;434478;1257;140150;-64
2023/12/07 17:41:31;;;;;;;45.50;27.90;;;;;;;-1.04;100.00;99922.55;432757;1257;126640;-64
2023/12/07 17:51:38;;;;;;;43.90;30.30;;;;;;;-1.06;100.00;99933.39;432987;1259;139897;-63
2023/12/07 18:01:44;;;;;;;40.20;24.70;;;;;;;-1.05;100.00;99922.90;437660;1257;140123;-64
2023/12/07 18:11:50;;;;;;;42.20;23.50;;;;;;;-1.04;100.00;99920.48;432847;1258;140524;-63
2023/12/07 18:21:56;;;;;;;44.90;26.70;;;;;;;-1.03;100.00;99928.02;434290;1257;140408;-64
2023/12/07 18:32:03;;;;;;;42.90;28.30;;;;;;;-1.00;100.00;99931.27;435724;1255;139847;-63
2023/12/07 18:42:09;;;;;;;55.90;36.10;;;;;;;-0.99;100.00;99926.96;437435;1256;140003;-63
2023/12/07 18:52:19;;;;;;;53.90;32.90;;;;;;;-0.97;100.00;99921.96;436126;1257;141209;-64
2023/12/07 19:02:26;;;;;;;43.70;28.40;;;;;;;-0.98;100.00;99916.81;434552;1254;140486;-63
2023/12/07 19:12:32;;;;;;;42.90;24.00;;;;;;;-0.97;100.00;99919.55;433452;1259;140055;-64
2023/12/07 19:22:39;;;;;;;56.20;32.90;;;;;;;-0.98;100.00;99917.85;434735;1257;140927;-65
2023/12/07 19:32:45;;;;;;;46.50;27.90;;;;;;;-0.98;100.00;99925.23;433169;1259;139999;-63
2023/12/07 19:42:51;;;;;;;66.90;37.30;;;;;;;-1.02;100.00;99922.69;432928;1255;140047;-64
2023/12/07 19:52:58;;;;;;;74.20;40.20;;;;;;;-1.08;100.00;99935.14;433473;1255;140275;-64
2023/12/07 20:03:05;;;;;;;62.50;38.70;;;;;;;-1.16;100.00;99942.95;432830;1257;140131;-65
2023/12/07 20:13:10;;;;;;;;;;;;;;;-1.24;100.00;99943.20;435954;1254;139904;-66
2023/12/07 20:23:16;;;;;;;69.60;38.30;;;;;;;-1.26;100.00;99948.20;434674;1255;126296;-64
2023/12/07 20:33:21;;;;;;;;;;;;;;;-1.28;100.00;99947.35;440634;1257;140284;-64
2023/12/07 20:43:29;;;;;;;64.30;36.60;;;;;;;-1.30;100.00;99950.65;432185;1257;126671;-64
2023/12/07 20:53:36;;;;;;;56.10;29.50;;;;;;;-1.33;100.00;99950.83;436173;1257;140238;-64
2023/12/07 21:03:40;;;;;;;;;;;;;;;-1.35;100.00;99956.35;432853;1257;140497;-64
2023/12/07 21:13:47;;;;;;;66.60;33.50;;;;;;;-1.37;100.00;99956.03;436756;1255;126283;-65
2023/12/07 21:23:51;;;;;;;;;;;;;;;-1.39;100.00;99959.99;440939;1257;139786;-65
2023/12/07 21:33:58;;;;;;;59.10;29.50;;;;;;;-1.38;100.00;99952.42;436472;1254;126192;-64
2023/12/07 21:44:05;;;;;;;55.70;29.20;;;;;;;-1.39;100.00;99947.30;434767;1254;143126;-65
2023/12/07 21:54:11;;;;;;;58.70;30.90;;;;;;;-1.44;100.00;99935.66;435682;1254;140084;-64
2023/12/07 22:04:16;;;;;;;;;;;;;;;-1.46;100.00;99930.00;437806;1256;140498;-65
2023/12/07 22:14:22;;;;;;;74.50;37.80;;;;;;;-1.51;100.00;99930.73;436164;1255;125899;-65
2023/12/07 22:24:29;;;;;;;67.80;33.40;;;;;;;-1.53;100.00;99912.89;433924;1255;141119;-64
2023/12/07 22:34:35;;;;;;;66.10;33.30;;;;;;;-1.64;100.00;99912.30;432883;1257;140062;-64
2023/12/07 22:44:41;;;;;;;74.40;37.80;;;;;;;-1.77;100.00;99897.98;432767;1257;140757;-64
2023/12/07 22:54:46;;;;;;;;;;;;;;;-1.85;100.00;99888.97;440064;1254;141265;-64
2023/12/07 23:04:52;;;;;;;73.50;39.00;;;;;;;-1.92;100.00;99875.13;432845;1259;126082;-64
2023/12/07 23:14:58;;;;;;;78.60;38.10;;;;;;;-1.98;100.00;99860.75;432843;1255;140195;-64
2023/12/07 23:25:07;;;;;;;79.50;38.90;;;;;;;-2.03;100.00;99860.63;435189;1259;140655;-64
2023/12/07 23:35:13;;;;;;;84.50;41.90;;;;;;;-2.08;100.00;99850.38;433427;1260;141665;-64
2023/12/07 23:45:19;;;;;;;82.90;43.90;;;;;;;-2.14;100.00;99840.81;432400;1257;141420;-64
2023/12/07 23:55:25;;;;;;;84.80;44.50;;;;;;;-2.18;100.00;99850.96;432390;1259;140937;-66
